Time;durP1;ratioP1;P1;durP2;ratioP2;P2;SDS_P1;SDS_P2;PMS_P1;PMS_P2;Temp;Humidity;BMP_temperature;BMP_pressure;BME280_temperature;BME280_humidity;BME280_pressure;Samples;Min_cycle;Max_cycle;Signal;HPM_P1;HPM_P2
2023/09/06 00:02:20;;;;;;;0.10;0.10;;;;;;;;;;5069238;28;20313;-72
2023/09/06 00:04:48;;;;;;;0.10;0.10;;;;;;;;;;5064040;28;20444;-72
2023/09/06 00:07:14;;;;;;;0.10;0.10;;;;;;;;;;5069283;28;20306;-71
2023/09/06 00:09:41;;;;;;;0.10;0.10;;;;;;;;;;5064487;28;20395;-72
2023/09/06 00:12:09;;;;;;;0.00;0.00;;;;;;;;;;5069191;28;20299;-72
2023/09/06 00:14:36;;;;;;;0.00;0.00;;;;;;;;;;5064119;28;20274;-72
2023/09/06 00:17:08;;;;;;;0.00;0.00;;;;;;;;;;5068558;28;20487;-73
2023/09/06 00:19:35;;;;;;;0.10;0.10;;;;;;;;;;5063706;28;20202;-73
2023/09/06 00:22:02;;;;;;;0.10;0.10;;;;;;;;;;5068280;28;20845;-73
2023/09/06 00:24:31;;;;;;;0.10;0.10;;;;;;;;;;5064455;28;20234;-73
2023/09/06 00:26:58;;;;;;;0.10;0.10;;;;;;;;;;5067619;28;20242;-73
2023/09/06 00:29:26;;;;;;;0.10;0.10;;;;;;;;;;5064844;28;20277;-73
2023/09/06 00:31:52;;;;;;;0.08;0.08;;;;;;;;;;5066940;28;20236;-73
2023/09/06 00:34:18;;;;;;;0.10;0.10;;;;;;;;;;5065403;28;20241;-73
2023/09/06 00:36:45;;;;;;;0.10;0.10;;;;;;;;;;5066077;28;20309;-73
2023/09/06 00:39:11;;;;;;;0.10;0.10;;;;;;;;;;5066479;28;20205;-73
2023/09/06 00:41:40;;;;;;;0.00;0.00;;;;;;;;;;5064850;28;20261;-73
2023/09/06 00:44:08;;;;;;;0.10;0.10;;;;;;;;;;5067192;28;20205;-74
2023/09/06 00:46:36;;;;;;;0.00;0.00;;;;;;;;;;5064509;28;20633;-73
2023/09/06 00:49:03;;;;;;;0.10;0.10;;;;;;;;;;5067417;28;20281;-73
2023/09/06 00:51:32;;;;;;;0.03;0.03;;;;;;;;;;5063788;28;20242;-73
2023/09/06 00:54:00;;;;;;;0.00;0.00;;;;;;;;;;5067823;28;20451;-72
2023/09/06 00:56:26;;;;;;;0.10;0.10;;;;;;;;;;5063483;28;20243;-72
2023/09/06 00:58:53;;;;;;;0.10;0.10;;;;;;;;;;5068834;28;20234;-72
2023/09/06 01:01:20;;;;;;;0.00;0.00;;;;;;;;;;5062420;28;20245;-73
2023/09/06 01:03:49;;;;;;;0.00;0.00;;;;;;;;;;5069422;28;20208;-72
2023/09/06 01:06:19;;;;;;;0.10;0.10;;;;;;;;;;5061882;28;20247;-72
2023/09/06 01:08:47;;;;;;;0.00;0.00;;;;;;;;;;5069544;28;20214;-72
2023/09/06 01:11:18;;;;;;;0.00;0.00;;;;;;;;;;5061804;28;20245;-72
2023/09/06 01:13:44;;;;;;;0.03;0.03;;;;;;;;;;5069544;28;20398;-72
2023/09/06 01:16:12;;;;;;;0.10;0.10;;;;;;;;;;5061039;28;20252;-72
2023/09/06 01:18:38;;;;;;;0.05;0.05;;;;;;;;;;5070555;28;20213;-72
2023/09/06 01:21:10;;;;;;;0.00;0.00;;;;;;;;;;5060237;28;20303;-72
2023/09/06 01:23:39;;;;;;;0.10;0.10;;;;;;;;;;5070738;28;20229;-72
2023/09/06 01:26:06;;;;;;;0.10;0.10;;;;;;;;;;5060413;28;20261;-72
2023/09/06 01:28:32;;;;;;;0.00;0.00;;;;;;;;;;5071206;28;20269;-72
2023/09/06 01:31:00;;;;;;;0.10;0.10;;;;;;;;;;5059658;28;20551;-72
2023/09/06 01:33:27;;;;;;;0.10;0.10;;;;;;;;;;5071840;28;20205;-72
2023/09/06 01:35:54;;;;;;;0.10;0.10;;;;;;;;;;5058761;28;20435;-72
2023/09/06 01:38:21;;;;;;;0.03;0.03;;;;;;;;;;5072577;28;20400;-72
2023/09/06 01:40:48;;;;;;;0.10;0.10;;;;;;;;;;5057914;28;20257;-72
2023/09/06 01:43:15;;;;;;;0.05;0.05;;;;;;;;;;5073445;28;20275;-72
2023/09/06 01:45:44;;;;;;;0.05;0.05;;;;;;;;;;5057019;28;20254;-72
2023/09/06 01:48:10;;;;;;;0.10;0.10;;;;;;;;;;5073762;28;20240;-72
2023/09/06 01:50:36;;;;;;;0.10;0.10;;;;;;;;;;5056554;28;20309;-72
2023/09/06 01:53:03;;;;;;;0.10;0.10;;;;;;;;;;5074892;28;20209;-72
2023/09/06 01:55:29;;;;;;;0.00;0.00;;;;;;;;;;5055296;28;20255;-72
2023/09/06 01:57:57;;;;;;;0.10;0.10;;;;;;;;;;5075440;28;20212;-71
2023/09/06 02:00:27;;;;;;;0.10;0.10;;;;;;;;;;5054376;28;20244;-71
2023/09/06 02:02:54;;;;;;;0.10;0.10;;;;;;;;;;5077003;28;20546;-71
2023/09/06 02:05:21;;;;;;;0.10;0.10;;;;;;;;;;5057657;28;20238;-71
2023/09/06 02:07:47;;;;;;;0.03;0.03;;;;;;;;;;5080281;28;20217;-71
2023/09/06 02:10:13;;;;;;;0.10;0.10;;;;;;;;;;5056582;28;20241;-71
2023/09/06 02:12:40;;;;;;;0.00;0.00;;;;;;;;;;5080839;28;20269;-71
2023/09/06 02:15:09;;;;;;;0.03;0.03;;;;;;;;;;5066019;28;20243;-72
2023/09/06 02:17:35;;;;;;;0.10;0.10;;;;;;;;;;5034783;28;20543;-71
2023/09/06 02:20:13;;;;;;;0.10;0.10;;;;;;;;;;5046375;28;20394;-72
2023/09/06 02:22:40;;;;;;;0.08;0.08;;;;;;;;;;5054656;28;20251;-71
2023/09/06 02:25:07;;;;;;;0.10;0.10;;;;;;;;;;5065886;28;20278;-72
2023/09/06 02:27:34;;;;;;;0.10;0.10;;;;;;;;;;5054424;28;20222;-71
2023/09/06 02:30:00;;;;;;;0.00;0.00;;;;;;;;;;5065678;28;20206;-72
2023/09/06 02:32:31;;;;;;;0.05;0.05;;;;;;;;;;5071139;28;20252;-72
2023/09/06 02:34:57;;;;;;;0.10;0.10;;;;;;;;;;5065796;28;20202;-71
2023/09/06 02:37:24;;;;;;;0.00;0.00;;;;;;;;;;5070895;28;20269;-72
2023/09/06 02:39:52;;;;;;;0.08;0.08;;;;;;;;;;5065617;28;20350;-71
2023/09/06 02:42:19;;;;;;;0.10;0.10;;;;;;;;;;5070840;28;20240;-72
2023/09/06 02:44:46;;;;;;;0.08;0.08;;;;;;;;;;5065902;28;20459;-72
2023/09/06 02:47:15;;;;;;;0.10;0.10;;;;;;;;;;5070823;28;20495;-72
2023/09/06 02:49:43;;;;;;;0.10;0.10;;;;;;;;;;5065444;28;20285;-72
2023/09/06 02:52:12;;;;;;;0.10;0.10;;;;;;;;;;5070684;28;20306;-72
2023/09/06 02:54:40;;;;;;;0.00;0.00;;;;;;;;;;5065341;28;20215;-72
2023/09/06 02:57:07;;;;;;;0.10;0.10;;;;;;;;;;5070363;28;20286;-72
2023/09/06 02:59:33;;;;;;;0.08;0.08;;;;;;;;;;5065649;28;20243;-72
2023/09/06 03:02:01;;;;;;;0.10;0.10;;;;;;;;;;5069376;28;20238;-72
2023/09/06 03:04:30;;;;;;;0.00;0.00;;;;;;;;;;5066215;28;20211;-71
2023/09/06 03:07:01;;;;;;;0.10;0.10;;;;;;;;;;5068943;28;20427;-71
2023/09/06 03:09:28;;;;;;;0.10;0.10;;;;;;;;;;5066261;28;20211;-72
2023/09/06 03:11:55;;;;;;;0.10;0.10;;;;;;;;;;5068744;28;20289;-71
2023/09/06 03:14:22;;;;;;;0.05;0.05;;;;;;;;;;5065624;28;20273;-72
2023/09/06 03:16:53;;;;;;;0.10;0.10;;;;;;;;;;5067708;28;20247;-72
2023/09/06 03:19:19;;;;;;;0.10;0.10;;;;;;;;;;5066940;28;20712;-72
2023/09/06 03:21:47;;;;;;;0.10;0.10;;;;;;;;;;5067317;28;20303;-71
2023/09/06 03:24:15;;;;;;;0.10;0.10;;;;;;;;;;5067447;28;20275;-72
2023/09/06 03:26:43;;;;;;;0.10;0.10;;;;;;;;;;5066737;28;20270;-72
2023/09/06 03:29:10;;;;;;;0.10;0.10;;;;;;;;;;5067939;28;20213;-71
2023/09/06 03:31:42;;;;;;;0.05;0.05;;;;;;;;;;5065946;28;20248;-72
2023/09/06 03:34:08;;;;;;;0.10;0.10;;;;;;;;;;5068037;28;20209;-71
2023/09/06 03:36:35;;;;;;;0.10;0.10;;;;;;;;;;5065685;28;20244;-71
2023/09/06 03:39:05;;;;;;;0.10;0.10;;;;;;;;;;5068782;28;20366;-71
2023/09/06 03:41:33;;;;;;;0.10;0.10;;;;;;;;;;5064936;28;20240;-71
2023/09/06 03:44:00;;;;;;;0.00;0.00;;;;;;;;;;5069058;28;20204;-72
2023/09/06 03:46:27;;;;;;;0.00;0.00;;;;;;;;;;5064270;28;20252;-72
2023/09/06 03:48:54;;;;;;;0.00;0.00;;;;;;;;;;5069763;28;20213;-73
2023/09/06 03:51:20;;;;;;;0.05;0.05;;;;;;;;;;5063332;28;20388;-72
2023/09/06 03:53:47;;;;;;;0.00;0.00;;;;;;;;;;5070363;28;20221;-72
2023/09/06 03:56:14;;;;;;;0.00;0.00;;;;;;;;;;5062485;28;20504;-73
2023/09/06 03:58:42;;;;;;;0.10;0.10;;;;;;;;;;5070977;28;20305;-72
2023/09/06 04:01:10;;;;;;;0.03;0.03;;;;;;;;;;5061777;28;20246;-72
2023/09/06 04:03:38;;;;;;;0.05;0.05;;;;;;;;;;5071186;28;20254;-72
2023/09/06 04:06:07;;;;;;;0.00;0.00;;;;;;;;;;5060988;28;20308;-73
2023/09/06 04:08:36;;;;;;;0.10;0.10;;;;;;;;;;5071736;28;20214;-72
2023/09/06 04:11:02;;;;;;;0.00;0.00;;;;;;;;;;5060849;28;20240;-72
2023/09/06 04:13:28;;;;;;;0.05;0.05;;;;;;;;;;5072468;28;20201;-72
2023/09/06 04:15:56;;;;;;;0.03;0.03;;;;;;;;;;5059905;28;20249;-72
2023/09/06 04:18:22;;;;;;;0.03;0.03;;;;;;;;;;5073171;28;20242;-72
2023/09/06 04:20:50;;;;;;;0.00;0.00;;;;;;;;;;5059133;28;20314;-72
2023/09/06 04:23:16;;;;;;;0.05;0.05;;;;;;;;;;5073657;28;20235;-72
2023/09/06 04:25:44;;;;;;;0.10;0.10;;;;;;;;;;5057800;28;20456;-72
2023/09/06 04:28:11;;;;;;;0.10;0.10;;;;;;;;;;5074265;28;20209;-72
2023/09/06 04:30:40;;;;;;;0.00;0.00;;;;;;;;;;5057200;28;20241;-72
2023/09/06 04:33:10;;;;;;;0.05;0.05;;;;;;;;;;5075061;28;20368;-72
2023/09/06 04:35:38;;;;;;;0.10;0.10;;;;;;;;;;5057131;28;20249;-72
2023/09/06 04:38:04;;;;;;;0.10;0.10;;;;;;;;;;5075010;28;20240;-72
2023/09/06 04:40:31;;;;;;;0.10;0.10;;;;;;;;;;5056262;28;20246;-74
2023/09/06 04:42:57;;;;;;;0.10;0.10;;;;;;;;;;5075996;28;20328;-72
2023/09/06 04:45:24;;;;;;;0.05;0.05;;;;;;;;;;5055487;28;20234;-72
2023/09/06 04:47:50;;;;;;;0.10;0.10;;;;;;;;;;5077024;28;20238;-72
2023/09/06 04:50:18;;;;;;;0.10;0.10;;;;;;;;;;5054490;28;20237;-72
2023/09/06 04:52:45;;;;;;;0.10;0.10;;;;;;;;;;5077834;28;20240;-72
2023/09/06 04:55:12;;;;;;;0.10;0.10;;;;;;;;;;5053439;28;20468;-72
2023/09/06 04:57:39;;;;;;;0.10;0.10;;;;;;;;;;5077984;28;20202;-72
2023/09/06 05:00:11;;;;;;;0.10;0.10;;;;;;;;;;5063553;28;20245;-72
2023/09/06 05:02:37;;;;;;;0.05;0.05;;;;;;;;;;5051866;28;20232;-72
2023/09/06 05:05:04;;;;;;;0.00;0.00;;;;;;;;;;5063612;28;20396;-72
2023/09/06 05:07:32;;;;;;;0.10;0.10;;;;;;;;;;5068750;28;20261;-71
2023/09/06 05:09:58;;;;;;;0.10;0.10;;;;;;;;;;5063232;28;20272;-72
2023/09/06 05:12:25;;;;;;;0.10;0.10;;;;;;;;;;5068590;28;20257;-72
2023/09/06 05:14:51;;;;;;;0.05;0.05;;;;;;;;;;5063140;28;20207;-72
2023/09/06 05:17:18;;;;;;;0.00;0.00;;;;;;;;;;5068485;28;20307;-72
2023/09/06 05:19:44;;;;;;;0.10;0.10;;;;;;;;;;5063062;28;20271;-72
2023/09/06 05:22:10;;;;;;;0.10;0.10;;;;;;;;;;5068424;28;20302;-72
2023/09/06 05:24:38;;;;;;;0.10;0.10;;;;;;;;;;5063307;28;20232;-73
2023/09/06 05:27:05;;;;;;;0.10;0.10;;;;;;;;;;5067756;28;20305;-72
2023/09/06 05:29:32;;;;;;;0.10;0.10;;;;;;;;;;5063682;28;20292;-70
2023/09/06 05:31:59;;;;;;;0.10;0.10;;;;;;;;;;5067092;28;20304;-71
2023/09/06 05:34:25;;;;;;;0.10;0.10;;;;;;;;;;5064317;28;20208;-72
2023/09/06 05:36:52;;;;;;;0.10;0.10;;;;;;;;;;5066085;28;20442;-71
2023/09/06 05:39:20;;;;;;;0.10;0.10;;;;;;;;;;5068815;28;20321;-71
2023/09/06 05:41:50;;;;;;;0.00;0.00;;;;;;;;;;5069292;28;20293;-71
2023/09/06 05:44:16;;;;;;;0.08;0.08;;;;;;;;;;5069219;28;20256;-71
2023/09/06 05:46:43;;;;;;;0.10;0.10;;;;;;;;;;5068541;28;20279;-71
2023/09/06 05:49:09;;;;;;;0.10;0.10;;;;;;;;;;5069938;28;20213;-72
2023/09/06 05:51:36;;;;;;;0.40;0.40;;;;;;;;;;5067628;28;20256;-72
2023/09/06 05:54:03;;;;;;;0.10;0.10;;;;;;;;;;5070515;28;20219;-71
2023/09/06 05:56:29;;;;;;;0.10;0.10;;;;;;;;;;5066756;28;20242;-71
2023/09/06 05:58:57;;;;;;;0.10;0.10;;;;;;;;;;5071470;28;20228;-71
2023/09/06 06:01:23;;;;;;;0.10;0.10;;;;;;;;;;5065426;28;20465;-71
2023/09/06 06:03:49;;;;;;;0.10;0.10;;;;;;;;;;5072705;28;20478;-72
2023/09/06 06:06:17;;;;;;;0.10;0.10;;;;;;;;;;5064983;28;20440;-72
2023/09/06 06:08:47;;;;;;;0.03;0.03;;;;;;;;;;5072924;28;20206;-71
2023/09/06 06:11:13;;;;;;;0.10;0.10;;;;;;;;;;5064288;28;20284;-72
2023/09/06 06:13:39;;;;;;;0.10;0.10;;;;;;;;;;5073479;28;20203;-72
2023/09/06 06:16:08;;;;;;;0.10;0.10;;;;;;;;;;5063216;28;20255;-72
2023/09/06 06:18:35;;;;;;;0.10;0.10;;;;;;;;;;5074080;28;20451;-72
2023/09/06 06:21:03;;;;;;;0.10;0.10;;;;;;;;;;5062777;28;20488;-73
2023/09/06 06:23:30;;;;;;;0.10;0.10;;;;;;;;;;5074476;28;20321;-73
2023/09/06 06:25:57;;;;;;;0.10;0.10;;;;;;;;;;5062094;28;20241;-70
2023/09/06 06:28:23;;;;;;;0.10;0.10;;;;;;;;;;5075031;28;20211;-72
2023/09/06 06:30:50;;;;;;;0.10;0.10;;;;;;;;;;5061279;28;20241;-71
2023/09/06 06:33:17;;;;;;;1.08;1.08;;;;;;;;;;5076082;28;20232;-72
2023/09/06 06:35:44;;;;;;;0.10;0.10;;;;;;;;;;5060202;28;20345;-71
2023/09/06 06:38:11;;;;;;;0.08;0.08;;;;;;;;;;5076710;28;20246;-71
2023/09/06 06:40:37;;;;;;;0.10;0.10;;;;;;;;;;5059556;28;20314;-73
2023/09/06 06:43:04;;;;;;;0.10;0.10;;;;;;;;;;5077153;28;20295;-73
2023/09/06 06:45:31;;;;;;;0.05;0.05;;;;;;;;;;5058474;28;20425;-72
2023/09/06 06:47:57;;;;;;;0.15;0.15;;;;;;;;;;5078296;28;20256;-71
2023/09/06 06:50:25;;;;;;;0.10;0.10;;;;;;;;;;5057404;28;20275;-72
2023/09/06 06:52:51;;;;;;;0.10;0.10;;;;;;;;;;5078937;28;20211;-72
2023/09/06 06:55:18;;;;;;;0.10;0.10;;;;;;;;;;5056365;28;20246;-73
2023/09/06 06:57:44;;;;;;;0.10;0.10;;;;;;;;;;5079648;28;20238;-72
2023/09/06 07:00:12;;;;;;;0.57;0.57;;;;;;;;;;5055663;28;20204;-73
2023/09/06 07:02:38;;;;;;;0.08;0.08;;;;;;;;;;5080475;28;20212;-72
2023/09/06 07:05:05;;;;;;;0.10;0.10;;;;;;;;;;5065518;28;20230;-72
2023/09/06 07:07:32;;;;;;;0.10;0.10;;;;;;;;;;5070602;28;20310;-72
2023/09/06 07:09:59;;;;;;;0.10;0.10;;;;;;;;;;5065304;28;20241;-73
2023/09/06 07:12:25;;;;;;;0.10;0.10;;;;;;;;;;5070545;28;20312;-72
2023/09/06 07:14:51;;;;;;;0.00;0.00;;;;;;;;;;5065416;28;20279;-72
2023/09/06 07:17:18;;;;;;;0.03;0.03;;;;;;;;;;5070327;28;20299;-72
2023/09/06 07:19:44;;;;;;;0.00;0.00;;;;;;;;;;5065080;28;20238;-72
2023/09/06 07:22:11;;;;;;;0.10;0.10;;;;;;;;;;5070163;28;20249;-72
2023/09/06 07:24:38;;;;;;;0.10;0.10;;;;;;;;;;5065072;28;20305;-72
2023/09/06 07:27:05;;;;;;;0.00;0.00;;;;;;;;;;5069670;28;20256;-71
2023/09/06 07:29:31;;;;;;;0.10;0.10;;;;;;;;;;5065202;28;20274;-71
2023/09/06 07:31:58;;;;;;;0.08;0.08;;;;;;;;;;5068919;28;20554;-71
2023/09/06 07:34:25;;;;;;;0.10;0.10;;;;;;;;;;5065925;28;20203;-71
2023/09/06 07:36:51;;;;;;;0.10;0.10;;;;;;;;;;5067746;28;20254;-71
2023/09/06 07:39:18;;;;;;;0.03;0.03;;;;;;;;;;5066695;28;20452;-70
2023/09/06 07:41:46;;;;;;;0.10;0.10;;;;;;;;;;5066730;28;20304;-71
2023/09/06 07:44:13;;;;;;;0.08;0.08;;;;;;;;;;5067250;28;20508;-72
2023/09/06 07:46:41;;;;;;;0.10;0.10;;;;;;;;;;5066041;28;20514;-71
2023/09/06 07:49:07;;;;;;;0.00;0.00;;;;;;;;;;5067845;28;20215;-71
2023/09/06 07:51:33;;;;;;;0.00;0.00;;;;;;;;;;5065078;28;20264;-71
2023/09/06 07:54:00;;;;;;;0.10;0.10;;;;;;;;;;5068581;28;20254;-71
2023/09/06 07:56:27;;;;;;;0.10;0.10;;;;;;;;;;5064181;28;20309;-71
2023/09/06 07:58:55;;;;;;;0.10;0.10;;;;;;;;;;5069569;28;20211;-71
2023/09/06 08:01:21;;;;;;;0.00;0.00;;;;;;;;;;5062637;28;20258;-72
2023/09/06 08:03:47;;;;;;;0.00;0.00;;;;;;;;;;5069797;28;20258;-72
2023/09/06 08:06:14;;;;;;;0.00;0.00;;;;;;;;;;5062420;28;20239;-72
2023/09/06 08:08:40;;;;;;;0.03;0.03;;;;;;;;;;5071093;28;20280;-72
2023/09/06 08:11:06;;;;;;;0.03;0.03;;;;;;;;;;5061210;28;20314;-71
2023/09/06 08:13:33;;;;;;;0.00;0.00;;;;;;;;;;5071747;28;20242;-71
2023/09/06 08:16:01;;;;;;;0.03;0.03;;;;;;;;;;5060200;28;20300;-70
2023/09/06 08:18:28;;;;;;;0.00;0.00;;;;;;;;;;5072672;28;20214;-72
2023/09/06 08:20:54;;;;;;;0.00;0.00;;;;;;;;;;5059830;28;20441;-72
2023/09/06 08:23:20;;;;;;;0.10;0.10;;;;;;;;;;5073221;28;20266;-72
2023/09/06 08:25:47;;;;;;;0.08;0.08;;;;;;;;;;5058511;28;20255;-71
2023/09/06 08:28:16;;;;;;;0.00;0.00;;;;;;;;;;5074123;28;20271;-71
2023/09/06 08:30:44;;;;;;;0.00;0.00;;;;;;;;;;5057880;28;20302;-72
2023/09/06 08:33:11;;;;;;;0.00;0.00;;;;;;;;;;5074592;28;20552;-71
2023/09/06 08:35:38;;;;;;;0.10;0.10;;;;;;;;;;5057334;28;20235;-71
2023/09/06 08:38:04;;;;;;;0.10;0.10;;;;;;;;;;5077905;28;20204;-74
2023/09/06 08:40:31;;;;;;;0.00;0.00;;;;;;;;;;5056452;28;20307;-74
2023/09/06 08:43:03;;;;;;;0.00;0.00;;;;;;;;;;5075828;28;20238;-74
2023/09/06 08:45:30;;;;;;;0.00;0.00;;;;;;;;;;5056033;28;20240;-74
2023/09/06 08:47:56;;;;;;;0.00;0.00;;;;;;;;;;5076435;28;20461;-74
2023/09/06 08:50:24;;;;;;;0.30;0.30;;;;;;;;;;5055268;28;20506;-75
2023/09/06 08:52:51;;;;;;;0.00;0.00;;;;;;;;;;5076899;28;20236;-73
2023/09/06 08:55:18;;;;;;;0.00;0.00;;;;;;;;;;5054289;28;20239;-73
2023/09/06 08:57:45;;;;;;;0.00;0.00;;;;;;;;;;5077710;28;20716;-74
2023/09/06 09:00:13;;;;;;;0.00;0.00;;;;;;;;;;5053715;28;20521;-73
2023/09/06 09:02:42;;;;;;;0.00;0.00;;;;;;;;;;5078365;28;20546;-74
2023/09/06 09:05:09;;;;;;;0.00;0.00;;;;;;;;;;5056869;28;20216;-74
2023/09/06 09:07:37;;;;;;;0.08;0.08;;;;;;;;;;5078686;28;20387;-74
2023/09/06 09:10:07;;;;;;;0.00;0.00;;;;;;;;;;5063172;28;20204;-74
2023/09/06 09:12:34;;;;;;;0.00;0.00;;;;;;;;;;5054329;28;20200;-74
2023/09/06 09:15:00;;;;;;;0.00;0.00;;;;;;;;;;5067551;28;20426;-74
2023/09/06 09:17:28;;;;;;;0.00;0.00;;;;;;;;;;5072557;28;20324;-74
2023/09/06 09:19:55;;;;;;;0.00;0.00;;;;;;;;;;5067398;28;20211;-74
2023/09/06 09:22:23;;;;;;;0.00;0.00;;;;;;;;;;5072413;28;20239;-74
2023/09/06 09:24:50;;;;;;;0.00;0.00;;;;;;;;;;5066966;28;20228;-74
2023/09/06 09:27:17;;;;;;;0.00;0.00;;;;;;;;;;5072273;28;20502;-74
2023/09/06 09:29:44;;;;;;;0.00;0.00;;;;;;;;;;5067275;28;20464;-75
2023/09/06 09:32:12;;;;;;;0.00;0.00;;;;;;;;;;5072237;28;20239;-75
2023/09/06 09:34:39;;;;;;;0.00;0.00;;;;;;;;;;5067204;28;20227;-74
2023/09/06 09:37:08;;;;;;;0.00;0.00;;;;;;;;;;5071855;28;20500;-74
2023/09/06 09:39:35;;;;;;;0.00;0.00;;;;;;;;;;5067217;28;20452;-74
2023/09/06 09:42:03;;;;;;;0.00;0.00;;;;;;;;;;5071235;28;20453;-74
2023/09/06 09:44:29;;;;;;;0.22;0.22;;;;;;;;;;5067274;28;20266;-73
2023/09/06 09:46:57;;;;;;;0.00;0.00;;;;;;;;;;5070437;28;20490;-74
2023/09/06 09:49:23;;;;;;;0.00;0.00;;;;;;;;;;5067951;28;20211;-74
2023/09/06 09:51:50;;;;;;;0.00;0.00;;;;;;;;;;5069550;28;20306;-73
2023/09/06 09:54:17;;;;;;;0.00;0.00;;;;;;;;;;5068765;28;20250;-74
2023/09/06 09:56:47;;;;;;;0.00;0.00;;;;;;;;;;5068622;28;20243;-74
2023/09/06 09:59:16;;;;;;;0.00;0.00;;;;;;;;;;5068916;28;20274;-74
2023/09/06 10:01:43;;;;;;;0.00;0.00;;;;;;;;;;5068443;28;20495;-74
2023/09/06 10:04:12;;;;;;;0.00;0.00;;;;;;;;;;5069649;28;20463;-74
2023/09/06 10:06:39;;;;;;;0.00;0.00;;;;;;;;;;5067739;28;20246;-75
2023/09/06 10:09:12;;;;;;;0.00;0.00;;;;;;;;;;5069826;28;20205;-73
2023/09/06 10:11:39;;;;;;;0.00;0.00;;;;;;;;;;5067741;28;20239;-74
2023/09/06 10:14:07;;;;;;;0.00;0.00;;;;;;;;;;5069724;28;20234;-74
2023/09/06 10:16:35;;;;;;;0.00;0.00;;;;;;;;;;5067024;28;20269;-74
2023/09/06 10:19:01;;;;;;;0.00;0.00;;;;;;;;;;5070289;28;20208;-75
2023/09/06 10:21:28;;;;;;;0.00;0.00;;;;;;;;;;5066225;28;20239;-75
2023/09/06 10:23:55;;;;;;;0.00;0.00;;;;;;;;;;5070508;28;20431;-75
2023/09/06 10:26:25;;;;;;;0.00;0.00;;;;;;;;;;5065191;28;20314;-75
2023/09/06 10:28:56;;;;;;;0.00;0.00;;;;;;;;;;5071737;28;20235;-75
2023/09/06 10:31:30;;;;;;;0.00;0.00;;;;;;;;;;5065349;28;20475;-74
2023/09/06 10:33:58;;;;;;;0.00;0.00;;;;;;;;;;5070947;28;20207;-74
2023/09/06 10:36:27;;;;;;;0.00;0.00;;;;;;;;;;5065332;28;20239;-74
2023/09/06 10:39:18;;;;;;;0.00;0.00;;;;;;;;;;5071156;28;20204;-74
2023/09/06 10:42:03;;;;;;;0.00;0.00;;;;;;;;;;5053215;28;20243;-73
2023/09/06 10:44:29;;;;;;;0.00;0.00;;;;;;;;;;5066338;28;20255;-73
2023/09/06 10:46:56;;;;;;;0.00;0.00;;;;;;;;;;5069339;28;20422;-74
2023/09/06 10:49:25;;;;;;;0.00;0.00;;;;;;;;;;5067222;28;20462;-73
2023/09/06 10:51:58;;;;;;;0.00;0.00;;;;;;;;;;5068613;28;20534;-73
2023/09/06 10:54:25;;;;;;;0.00;0.00;;;;;;;;;;5066577;28;20223;-73
2023/09/06 10:56:56;;;;;;;0.00;0.00;;;;;;;;;;5068665;28;20238;-73
2023/09/06 10:59:23;;;;;;;0.00;0.00;;;;;;;;;;5066978;28;20236;-73
2023/09/06 11:02:04;;;;;;;0.00;0.00;;;;;;;;;;5068153;28;20254;-73
2023/09/06 11:04:32;;;;;;;0.00;0.00;;;;;;;;;;5065393;28;20536;-73
2023/09/06 11:06:58;;;;;;;0.00;0.00;;;;;;;;;;5069336;28;20438;-73
2023/09/06 11:09:25;;;;;;;0.00;0.00;;;;;;;;;;5066453;28;20243;-75
2023/09/06 11:11:52;;;;;;;0.00;0.00;;;;;;;;;;5068455;28;20243;-75
2023/09/06 11:14:18;;;;;;;0.00;0.00;;;;;;;;;;5067193;28;20203;-74
2023/09/06 11:16:47;;;;;;;0.00;0.00;;;;;;;;;;5067254;28;20303;-75
2023/09/06 11:19:13;;;;;;;0.00;0.00;;;;;;;;;;5067852;28;20232;-74
2023/09/06 11:21:41;;;;;;;0.00;0.00;;;;;;;;;;5066627;28;20241;-74
2023/09/06 11:24:07;;;;;;;0.00;0.00;;;;;;;;;;5068484;28;20295;-75
2023/09/06 11:26:34;;;;;;;0.00;0.00;;;;;;;;;;5065721;28;20251;-73
2023/09/06 11:29:03;;;;;;;0.00;0.00;;;;;;;;;;5069301;28;20204;-73
2023/09/06 11:31:33;;;;;;;0.00;0.00;;;;;;;;;;5065159;28;20254;-74
2023/09/06 11:34:03;;;;;;;0.00;0.00;;;;;;;;;;5069268;28;20271;-75
2023/09/06 11:36:32;;;;;;;0.00;0.00;;;;;;;;;;5064042;28;20242;-75
2023/09/06 11:39:03;;;;;;;0.00;0.00;;;;;;;;;;5069381;28;20420;-75
2023/09/06 11:41:29;;;;;;;0.00;0.00;;;;;;;;;;5065009;28;20281;-74
2023/09/06 11:43:59;;;;;;;0.00;0.00;;;;;;;;;;5069571;28;20397;-75
2023/09/06 11:46:25;;;;;;;0.00;0.00;;;;;;;;;;5064169;28;20235;-75
2023/09/06 11:48:53;;;;;;;0.00;0.00;;;;;;;;;;5069927;28;20204;-75
2023/09/06 11:51:21;;;;;;;0.00;0.00;;;;;;;;;;5063357;28;20483;-75
2023/09/06 11:53:54;;;;;;;0.00;0.00;;;;;;;;;;5070177;28;20413;-75
2023/09/06 11:56:33;;;;;;;0.00;0.00;;;;;;;;;;5090420;28;20617;-73
2023/09/06 11:59:00;;;;;;;0.00;0.00;;;;;;;;;;5070355;28;20222;-74
2023/09/06 12:01:26;;;;;;;0.00;0.00;;;;;;;;;;5071172;28;20245;-74
2023/09/06 12:03:53;;;;;;;0.00;0.00;;;;;;;;;;5072334;28;20204;-73
2023/09/06 12:06:20;;;;;;;0.00;0.00;;;;;;;;;;5070016;28;20276;-75
2023/09/06 12:08:46;;;;;;;0.00;0.00;;;;;;;;;;5073331;28;20204;-75
2023/09/06 12:11:20;;;;;;;0.00;0.00;;;;;;;;;;5068064;28;20297;-74
2023/09/06 12:13:48;;;;;;;0.00;0.00;;;;;;;;;;5073219;28;20192;-75
2023/09/06 12:16:15;;;;;;;0.00;0.00;;;;;;;;;;5068312;28;20554;-74
2023/09/06 12:18:42;;;;;;;0.00;0.00;;;;;;;;;;5074606;28;20503;-74
2023/09/06 12:21:08;;;;;;;0.00;0.00;;;;;;;;;;5066558;28;20302;-73
2023/09/06 12:23:35;;;;;;;0.00;0.00;;;;;;;;;;5076138;28;20258;-74
2023/09/06 12:26:02;;;;;;;0.00;0.00;;;;;;;;;;5064912;28;20239;-73
2023/09/06 12:28:28;;;;;;;0.00;0.00;;;;;;;;;;5077621;28;20239;-74
2023/09/06 12:31:01;;;;;;;0.00;0.00;;;;;;;;;;5063025;28;20238;-74
2023/09/06 12:33:28;;;;;;;0.00;0.00;;;;;;;;;;5078135;28;20193;-74
2023/09/06 12:35:59;;;;;;;0.00;0.00;;;;;;;;;;5062365;28;20244;-74
2023/09/06 12:38:25;;;;;;;0.00;0.00;;;;;;;;;;5078477;28;20208;-75
2023/09/06 12:40:52;;;;;;;0.00;0.00;;;;;;;;;;5062037;28;20261;-74
2023/09/06 12:43:19;;;;;;;0.00;0.00;;;;;;;;;;5080489;28;20276;-74
2023/09/06 12:45:47;;;;;;;0.00;0.00;;;;;;;;;;5060111;28;20585;-75
2023/09/06 12:48:15;;;;;;;0.00;0.00;;;;;;;;;;5081611;28;20212;-74
2023/09/06 12:50:41;;;;;;;0.00;0.00;;;;;;;;;;5058876;28;20258;-74
2023/09/06 12:53:08;;;;;;;0.00;0.00;;;;;;;;;;5083115;28;20192;-74
2023/09/06 12:55:35;;;;;;;0.00;0.00;;;;;;;;;;5056597;28;20237;-74
2023/09/06 12:58:03;;;;;;;0.00;0.00;;;;;;;;;;5084418;28;20212;-74
2023/09/06 13:00:30;;;;;;;0.00;0.00;;;;;;;;;;5055538;28;20246;-73
2023/09/06 13:02:56;;;;;;;0.00;0.00;;;;;;;;;;5086065;28;20264;-74
2023/09/06 13:05:26;;;;;;;0.00;0.00;;;;;;;;;;5053638;28;20251;-73
2023/09/06 13:07:52;;;;;;;0.00;0.00;;;;;;;;;;5073666;28;20211;-74
2023/09/06 13:10:19;;;;;;;0.00;0.00;;;;;;;;;;5039294;28;20391;-74
2023/09/06 13:12:46;;;;;;;0.00;0.00;;;;;;;;;;5075311;28;20204;-74
2023/09/06 13:15:12;;;;;;;0.00;0.00;;;;;;;;;;5037283;28;20239;-74
2023/09/06 13:17:38;;;;;;;0.00;0.00;;;;;;;;;;5076929;28;20192;-74
2023/09/06 13:20:07;;;;;;;0.00;0.00;;;;;;;;;;5046122;28;20204;-74
2023/09/06 13:22:37;;;;;;;0.00;0.00;;;;;;;;;;5035029;28;20216;-74
2023/09/06 13:25:03;;;;;;;0.00;0.00;;;;;;;;;;5045894;28;20232;-74
2023/09/06 13:27:30;;;;;;;0.00;0.00;;;;;;;;;;5067887;28;20444;-74
2023/09/06 13:29:57;;;;;;;0.00;0.00;;;;;;;;;;5046174;28;20455;-74
2023/09/06 13:32:25;;;;;;;0.00;0.00;;;;;;;;;;5067813;28;20249;-74
2023/09/06 13:34:52;;;;;;;0.10;0.10;;;;;;;;;;5045835;28;20240;-75
2023/09/06 13:37:19;;;;;;;0.00;0.00;;;;;;;;;;5067744;28;20266;-74
2023/09/06 13:39:47;;;;;;;0.00;0.00;;;;;;;;;;5045637;28;20275;-73
2023/09/06 13:42:13;;;;;;;0.00;0.00;;;;;;;;;;5067637;28;20310;-74
2023/09/06 13:44:39;;;;;;;0.00;0.00;;;;;;;;;;5045537;28;20275;-74
2023/09/06 13:47:06;;;;;;;0.00;0.00;;;;;;;;;;5066734;28;20314;-74
2023/09/06 13:49:32;;;;;;;0.00;0.00;;;;;;;;;;5046027;28;20236;-74
2023/09/06 13:51:58;;;;;;;0.00;0.00;;;;;;;;;;5064733;28;20255;-74
2023/09/06 13:54:25;;;;;;;0.00;0.00;;;;;;;;;;5047934;28;20281;-74
2023/09/06 13:56:52;;;;;;;0.00;0.00;;;;;;;;;;5062877;28;20310;-75
2023/09/06 13:59:20;;;;;;;0.00;0.00;;;;;;;;;;5049846;28;20262;-76
2023/09/06 14:01:47;;;;;;;0.00;0.00;;;;;;;;;;5061240;28;20239;-74
2023/09/06 14:04:13;;;;;;;0.00;0.00;;;;;;;;;;5051026;28;20204;-74
2023/09/06 14:06:40;;;;;;;0.00;0.00;;;;;;;;;;5059530;28;20306;-75
2023/09/06 14:09:07;;;;;;;0.00;0.00;;;;;;;;;;5052628;28;20239;-75
2023/09/06 14:11:34;;;;;;;0.00;0.00;;;;;;;;;;5057979;28;20243;-75
2023/09/06 14:14:04;;;;;;;0.00;0.00;;;;;;;;;;5054150;28;20392;-74
2023/09/06 14:16:30;;;;;;;0.00;0.00;;;;;;;;;;5056882;28;20443;-76
2023/09/06 14:18:57;;;;;;;0.00;0.00;;;;;;;;;;5053949;28;20232;-74
2023/09/06 14:21:23;;;;;;;0.00;0.00;;;;;;;;;;5054832;28;20262;-76
2023/09/06 14:23:50;;;;;;;0.00;0.00;;;;;;;;;;5057037;28;20252;-75
2023/09/06 14:26:16;;;;;;;0.00;0.00;;;;;;;;;;5052990;28;20247;-74
2023/09/06 14:28:42;;;;;;;0.00;0.00;;;;;;;;;;5058802;28;20555;-74
2023/09/06 14:31:11;;;;;;;0.00;0.00;;;;;;;;;;5051046;28;20505;-76
2023/09/06 14:33:37;;;;;;;0.00;0.00;;;;;;;;;;5059986;28;20209;-76
2023/09/06 14:36:04;;;;;;;0.00;0.00;;;;;;;;;;5049482;28;20246;-77
2023/09/06 14:38:30;;;;;;;0.20;0.20;;;;;;;;;;5061999;28;20212;-77
2023/09/06 14:40:57;;;;;;;0.00;0.00;;;;;;;;;;5047689;28;20440;-79
2023/09/06 14:43:23;;;;;;;0.00;0.00;;;;;;;;;;5063449;28;20211;-78
2023/09/06 14:45:49;;;;;;;0.00;0.00;;;;;;;;;;5045238;28;20247;-78